createdAt,value
2018-08-06T00:00:17.642Z,1.23
2018-08-06T00:02:46.127Z,1.30
2018-08-06T00:05:14.396Z,1.07
2018-08-06T00:07:42.729Z,1.00
2018-08-06T00:10:11.794Z,1.20
2018-08-06T00:12:40.411Z,1.43
2018-08-06T00:15:10.049Z,1.20
2018-08-06T00:17:38.659Z,1.30
2018-08-06T00:20:08.057Z,1.43
2018-08-06T00:22:36.610Z,1.23
2018-08-06T00:25:05.202Z,1.60
2018-08-06T00:27:33.698Z,1.20
2018-08-06T00:30:02.360Z,1.27
2018-08-06T00:32:30.804Z,1.20
2018-08-06T00:34:59.186Z,1.00
2018-08-06T00:37:27.495Z,1.40
2018-08-06T00:39:55.773Z,1.40
2018-08-06T00:42:24.081Z,1.50
2018-08-06T00:45:04.405Z,1.60
2018-08-06T00:47:41.217Z,1.27
2018-08-06T00:50:21.774Z,1.50
2018-08-06T00:52:58.217Z,1.37
2018-08-06T00:55:26.603Z,1.53
2018-08-06T00:57:54.940Z,1.17
2018-08-06T01:00:23.251Z,1.30
2018-08-06T01:02:51.598Z,1.50
2018-08-06T01:05:19.905Z,1.30
2018-08-06T01:07:48.231Z,1.53
2018-08-06T01:10:17.587Z,1.50
2018-08-06T01:12:45.949Z,1.30
2018-08-06T01:15:16.361Z,1.33
2018-08-06T01:17:44.688Z,1.30
2018-08-06T01:20:13.561Z,1.33
2018-08-06T01:22:42.879Z,1.40
2018-08-06T01:25:11.280Z,1.57
2018-08-06T01:27:39.587Z,1.37
2018-08-06T01:30:09.649Z,1.30
2018-08-06T01:32:38.597Z,1.40
2018-08-06T01:35:08.260Z,1.57
2018-08-06T01:37:36.718Z,1.70
2018-08-06T01:40:06.428Z,1.70
2018-08-06T01:42:34.745Z,1.30
2018-08-06T01:45:03.127Z,1.60
2018-08-06T01:47:31.459Z,1.50
2018-08-06T01:49:59.784Z,1.40
2018-08-06T01:52:28.120Z,1.50
2018-08-06T01:54:56.425Z,1.40
2018-08-06T01:57:24.766Z,1.30
2018-08-06T01:59:53.157Z,1.40
2018-08-06T02:02:21.472Z,1.10
2018-08-06T02:04:49.802Z,1.30
2018-08-06T02:07:18.154Z,1.20
2018-08-06T02:09:46.439Z,1.33
2018-08-06T02:12:14.775Z,1.27
2018-08-06T02:14:43.103Z,1.47
2018-08-06T02:17:11.423Z,1.40
2018-08-06T02:19:39.748Z,1.40
2018-08-06T02:22:08.075Z,1.50
2018-08-06T02:24:36.435Z,1.23
2018-08-06T02:27:05.237Z,1.40
2018-08-06T02:29:33.622Z,1.40
2018-08-06T02:32:01.939Z,1.43
2018-08-06T02:34:30.235Z,1.30
2018-08-06T02:36:58.548Z,1.53
2018-08-06T02:39:26.854Z,1.40
2018-08-06T02:41:55.161Z,1.30
2018-08-06T02:44:23.512Z,1.20
2018-08-06T02:46:51.828Z,1.67
2018-08-06T02:49:20.128Z,1.67
2018-08-06T02:51:48.464Z,1.30
2018-08-06T02:54:16.786Z,1.30
2018-08-06T02:56:45.078Z,1.40
2018-08-06T02:59:13.402Z,1.40
2018-08-06T03:01:41.711Z,1.47
2018-08-06T03:04:10.012Z,1.50
2018-08-06T03:06:38.328Z,1.60
2018-08-06T03:09:09.233Z,1.40
2018-08-06T03:11:37.675Z,1.40
2018-08-06T03:14:06.147Z,1.50
2018-08-06T03:16:34.456Z,1.50
2018-08-06T03:19:02.806Z,1.43
2018-08-06T03:21:31.089Z,1.57
2018-08-06T03:23:59.408Z,1.50
2018-08-06T03:26:27.792Z,1.40
2018-08-06T03:28:56.460Z,1.80
2018-08-06T03:31:24.750Z,1.70
2018-08-06T03:33:53.093Z,1.60
2018-08-06T03:36:21.491Z,1.93
2018-08-06T03:38:49.815Z,1.60
2018-08-06T03:41:18.124Z,1.50
2018-08-06T03:43:46.456Z,1.50
2018-08-06T03:46:14.759Z,1.60
2018-08-06T03:48:43.073Z,1.60
2018-08-06T03:51:11.366Z,1.93
2018-08-06T03:53:39.410Z,1.80
2018-08-06T03:56:07.719Z,1.90
2018-08-06T03:58:36.062Z,1.90
2018-08-06T04:01:04.408Z,1.80
2018-08-06T04:03:32.711Z,1.90
2018-08-06T04:06:01.034Z,1.60
2018-08-06T04:08:29.372Z,1.60
2018-08-06T04:10:57.647Z,1.90
2018-08-06T04:13:26.002Z,1.67
2018-08-06T04:15:54.311Z,1.80
2018-08-06T04:18:22.628Z,1.90
2018-08-06T04:20:50.929Z,1.70
2018-08-06T04:23:19.252Z,1.70
2018-08-06T04:25:47.562Z,1.90
2018-08-06T04:28:15.894Z,1.60
2018-08-06T04:30:44.207Z,1.60
2018-08-06T04:33:12.597Z,1.70
2018-08-06T04:35:40.843Z,1.90
2018-08-06T04:38:09.186Z,1.97
2018-08-06T04:40:37.478Z,1.93
2018-08-06T04:43:05.911Z,1.70
2018-08-06T04:45:34.228Z,2.00
2018-08-06T04:48:02.559Z,1.70
2018-08-06T04:50:30.951Z,2.17
2018-08-06T04:52:59.276Z,1.83
2018-08-06T04:55:27.567Z,2.00
2018-08-06T04:57:55.878Z,1.80
2018-08-06T05:00:24.158Z,1.80
2018-08-06T05:02:52.460Z,1.97
2018-08-06T05:05:20.762Z,1.90
2018-08-06T05:07:48.808Z,1.70
2018-08-06T05:10:17.131Z,1.83
2018-08-06T05:12:45.461Z,1.60
2018-08-06T05:15:13.792Z,2.00
2018-08-06T05:17:42.171Z,1.60
2018-08-06T05:20:10.519Z,2.20
2018-08-06T05:22:38.914Z,2.00
2018-08-06T05:25:07.255Z,1.73
2018-08-06T05:27:35.635Z,1.60
2018-08-06T05:30:05.636Z,2.30
2018-08-06T05:32:33.951Z,1.80
2018-08-06T05:35:02.243Z,2.00
2018-08-06T05:37:30.545Z,1.47
2018-08-06T05:39:58.920Z,1.70
2018-08-06T05:42:27.199Z,2.03
2018-08-06T05:44:55.563Z,1.70
2018-08-06T05:47:23.913Z,1.73
2018-08-06T05:49:51.967Z,1.73
2018-08-06T05:52:20.254Z,1.80
2018-08-06T05:54:48.586Z,1.70
2018-08-06T05:57:16.892Z,1.80
2018-08-06T05:59:45.196Z,1.83
2018-08-06T06:02:13.506Z,1.70
2018-08-06T06:04:41.823Z,1.70
2018-08-06T06:07:10.116Z,1.90
2018-08-06T06:09:38.415Z,1.80
2018-08-06T06:12:06.714Z,1.80
2018-08-06T06:14:35.064Z,1.80
2018-08-06T06:17:03.335Z,1.77
2018-08-06T06:19:31.684Z,1.60
2018-08-06T06:21:59.985Z,1.70
2018-08-06T06:24:28.359Z,1.93
2018-08-06T06:26:56.721Z,2.00
2018-08-06T06:29:25.087Z,1.90
2018-08-06T06:31:53.425Z,2.10
2018-08-06T06:34:21.754Z,1.73
2018-08-06T06:36:50.158Z,1.70
2018-08-06T06:39:18.212Z,1.60
2018-08-06T06:41:46.567Z,2.17
2018-08-06T06:44:14.893Z,1.87
2018-08-06T06:46:43.220Z,1.83
2018-08-06T06:49:11.726Z,2.30
2018-08-06T06:51:40.028Z,2.00
2018-08-06T06:54:08.367Z,1.97
2018-08-06T06:56:36.693Z,2.23
2018-08-06T06:59:05.124Z,1.97
2018-08-06T07:01:33.460Z,2.27
2018-08-06T07:04:01.775Z,2.10
2018-08-06T07:06:30.154Z,2.03
2018-08-06T07:08:58.450Z,2.50
2018-08-06T07:11:26.764Z,2.13
2018-08-06T07:13:55.223Z,2.07
2018-08-06T07:16:23.126Z,2.07
2018-08-06T07:18:51.678Z,2.43
2018-08-06T07:21:20.026Z,2.00
2018-08-06T07:23:48.350Z,2.13
2018-08-06T07:26:16.770Z,1.80
2018-08-06T07:28:45.152Z,2.00
2018-08-06T07:31:13.451Z,1.90
2018-08-06T07:33:41.836Z,1.90
2018-08-06T07:36:10.169Z,2.37
2018-08-06T07:38:38.483Z,2.93
2018-08-06T07:41:06.498Z,2.93
2018-08-06T07:43:34.854Z,2.23
2018-08-06T07:46:03.146Z,2.93
2018-08-06T07:48:31.460Z,2.43
2018-08-06T07:50:59.788Z,2.13
2018-08-06T07:53:28.124Z,1.83
2018-08-06T07:55:56.440Z,2.27
2018-08-06T07:58:24.750Z,2.20
2018-08-06T08:00:53.075Z,2.20
2018-08-06T08:03:21.376Z,1.93
2018-08-06T08:05:49.684Z,1.90
2018-08-06T08:08:17.988Z,2.00
2018-08-06T08:10:46.339Z,2.10
2018-08-06T08:13:14.640Z,2.00
2018-08-06T08:15:42.952Z,2.03
2018-08-06T08:18:11.269Z,2.17
2018-08-06T08:20:39.584Z,2.10
2018-08-06T08:23:07.860Z,2.30
2018-08-06T08:25:36.230Z,2.00
2018-08-06T08:28:04.537Z,2.00
2018-08-06T08:30:32.871Z,1.90
2018-08-06T08:33:01.200Z,2.10
2018-08-06T08:35:32.163Z,2.00
2018-08-06T08:38:00.725Z,2.30
2018-08-06T08:40:29.223Z,2.10
2018-08-06T08:42:57.598Z,2.20
2018-08-06T08:45:25.940Z,2.27
2018-08-06T08:47:54.210Z,1.90
2018-08-06T08:50:22.498Z,2.60
2018-08-06T08:52:50.840Z,2.53
2018-08-06T08:55:20.839Z,3.33
2018-08-06T08:57:49.141Z,2.37
2018-08-06T09:00:19.997Z,2.47
2018-08-06T09:02:49.179Z,2.20
2018-08-06T09:05:18.035Z,2.00
2018-08-06T09:07:46.694Z,2.00
2018-08-06T09:10:16.159Z,2.30
2018-08-06T09:12:44.706Z,2.30
2018-08-06T09:15:16.111Z,1.83
2018-08-06T09:17:44.429Z,1.73
2018-08-06T09:20:13.008Z,2.20
2018-08-06T09:22:42.193Z,1.93
2018-08-06T09:25:11.399Z,1.83
2018-08-06T09:27:41.224Z,3.73
2018-08-06T09:30:12.688Z,2.63
2018-08-06T09:32:41.873Z,5.47
2018-08-06T09:35:10.467Z,2.13
2018-08-06T09:37:39.235Z,2.00
2018-08-06T09:40:10.147Z,2.33
2018-08-06T09:42:39.008Z,2.10
2018-08-06T09:45:08.974Z,2.00
2018-08-06T09:47:37.347Z,2.40
2018-08-06T09:50:07.261Z,2.10
2018-08-06T09:52:35.680Z,2.40
2018-08-06T09:55:04.642Z,2.40
2018-08-06T09:57:32.970Z,2.70
2018-08-06T10:00:01.344Z,2.40
2018-08-06T10:02:29.872Z,2.30
2018-08-06T10:04:58.179Z,2.13
2018-08-06T10:07:26.511Z,2.33
2018-08-06T10:09:55.085Z,2.63
2018-08-06T10:12:25.575Z,2.13
2018-08-06T10:15:01.489Z,2.50
2018-08-06T10:17:31.327Z,2.30
2018-08-06T10:19:59.679Z,2.33
2018-08-06T10:22:28.037Z,2.42
2018-08-06T10:24:59.560Z,2.55
2018-08-06T10:27:27.890Z,2.42
2018-08-06T10:29:56.330Z,2.50
2018-08-06T10:32:24.654Z,2.20
2018-08-06T10:34:53.207Z,2.70
2018-08-06T10:37:21.595Z,2.70
2018-08-06T10:39:50.171Z,2.45
2018-08-06T10:42:18.499Z,2.55
2018-08-06T10:44:48.904Z,2.30
2018-08-06T10:47:17.206Z,2.50
2018-08-06T10:49:45.510Z,2.50
2018-08-06T10:52:13.872Z,2.27
2018-08-06T10:54:42.171Z,2.17
2018-08-06T10:57:10.538Z,2.22
2018-08-06T10:59:38.973Z,2.10
2018-08-06T11:02:07.246Z,2.37
2018-08-06T11:04:35.568Z,2.30
2018-08-06T11:07:03.939Z,2.25
2018-08-06T11:09:32.263Z,2.50
2018-08-06T11:12:00.624Z,2.27
2018-08-06T11:14:29.100Z,2.30
2018-08-06T11:16:57.453Z,2.60
2018-08-06T11:19:25.757Z,2.60
2018-08-06T11:21:58.863Z,2.30
2018-08-06T11:24:27.163Z,2.65
2018-08-06T11:26:55.492Z,2.35
2018-08-06T11:29:23.875Z,2.33
2018-08-06T11:31:52.348Z,1.95
2018-08-06T11:34:20.688Z,2.42
2018-08-06T11:36:49.041Z,2.40
2018-08-06T11:39:17.363Z,2.65
2018-08-06T11:41:45.696Z,2.60
2018-08-06T11:44:14.113Z,2.47
2018-08-06T11:46:42.522Z,2.40
2018-08-06T11:49:10.901Z,2.60
2018-08-06T11:51:39.240Z,2.55
2018-08-06T11:54:07.965Z,2.65
2018-08-06T11:56:36.386Z,3.05
2018-08-06T11:59:04.687Z,2.98
2018-08-06T12:01:33.134Z,3.00
2018-08-06T12:04:01.454Z,2.35
2018-08-06T12:06:29.779Z,2.87
2018-08-06T12:08:58.127Z,2.90
2018-08-06T12:11:26.464Z,2.33
2018-08-06T12:13:54.758Z,2.75
2018-08-06T12:16:23.088Z,2.72
2018-08-06T12:18:51.512Z,2.47
2018-08-06T12:21:19.854Z,8.63
2018-08-06T12:23:47.905Z,8.43
2018-08-06T12:26:16.318Z,3.00
2018-08-06T12:28:44.648Z,2.50
2018-08-06T12:31:13.041Z,2.70
2018-08-06T12:33:41.416Z,2.70
2018-08-06T12:36:09.711Z,2.40
2018-08-06T12:38:49.743Z,2.60
2018-08-06T12:41:18.117Z,2.25
2018-08-06T12:43:46.431Z,2.70
2018-08-06T12:46:14.794Z,2.77
2018-08-06T12:48:43.203Z,2.60
2018-08-06T12:51:11.571Z,2.67
2018-08-06T12:53:40.213Z,3.00
2018-08-06T12:56:08.515Z,2.80
2018-08-06T12:58:36.835Z,13.00
2018-08-06T13:01:05.191Z,8.78
2018-08-06T13:03:33.503Z,3.00
2018-08-06T13:06:01.833Z,3.05
2018-08-06T13:08:30.186Z,2.47
2018-08-06T13:10:58.495Z,2.65
2018-08-06T13:13:26.540Z,3.10
2018-08-06T13:15:54.857Z,2.70
2018-08-06T13:18:23.353Z,2.95
2018-08-06T13:20:51.739Z,2.77
2018-08-06T13:23:20.310Z,2.40
2018-08-06T13:25:48.633Z,2.65
2018-08-06T13:28:16.989Z,2.50
2018-08-06T13:30:45.354Z,2.52
2018-08-06T13:33:13.717Z,3.33
2018-08-06T13:35:42.091Z,2.62
2018-08-06T13:38:10.476Z,2.98
2018-08-06T13:40:38.832Z,3.10
2018-08-06T13:43:07.486Z,2.98
2018-08-06T13:45:35.876Z,2.60
2018-08-06T13:48:04.316Z,3.08
2018-08-06T13:50:32.601Z,3.05
2018-08-06T13:53:00.994Z,3.08
2018-08-06T13:55:29.263Z,3.20
2018-08-06T13:57:57.610Z,2.70
2018-08-06T14:00:25.917Z,2.75
2018-08-06T14:02:54.256Z,2.90
2018-08-06T14:05:22.586Z,2.75
2018-08-06T14:07:50.923Z,3.00
2018-08-06T14:10:19.227Z,2.65
2018-08-06T14:12:47.570Z,2.60
2018-08-06T14:15:15.909Z,2.62
2018-08-06T14:17:44.601Z,2.80
2018-08-06T14:20:14.771Z,11.88
2018-08-06T14:22:43.069Z,3.20
2018-08-06T14:25:12.072Z,3.08
2018-08-06T14:27:40.460Z,2.62
2018-08-06T14:30:11.162Z,2.85
2018-08-06T14:32:39.870Z,2.85
2018-08-06T14:35:08.320Z,2.90
2018-08-06T14:37:36.800Z,2.70
2018-08-06T14:40:07.224Z,3.00
2018-08-06T14:42:37.749Z,2.92
2018-08-06T14:45:10.396Z,3.00
2018-08-06T14:47:39.040Z,2.85
2018-08-06T14:50:08.669Z,3.25
2018-08-06T14:52:37.367Z,3.60
2018-08-06T14:55:05.705Z,3.35
2018-08-06T14:57:36.021Z,3.20
2018-08-06T15:00:11.516Z,3.00
2018-08-06T15:02:40.383Z,3.65
2018-08-06T15:05:08.746Z,3.75
2018-08-06T15:07:37.572Z,3.40
2018-08-06T15:10:08.048Z,3.58
2018-08-06T15:12:36.945Z,3.58
2018-08-06T15:15:05.949Z,3.25
2018-08-06T15:17:34.301Z,3.33
2018-08-06T15:20:02.726Z,3.20
2018-08-06T15:22:30.787Z,3.27
2018-08-06T15:24:59.080Z,3.40
2018-08-06T15:27:27.405Z,3.27
2018-08-06T15:29:55.752Z,3.30
2018-08-06T15:32:24.068Z,3.58
2018-08-06T15:34:52.416Z,3.55
2018-08-06T15:37:20.793Z,3.12
2018-08-06T15:39:49.331Z,3.02
2018-08-06T15:42:17.650Z,3.00
2018-08-06T15:44:45.960Z,3.45
2018-08-06T15:47:14.254Z,3.20
2018-08-06T15:49:42.561Z,3.25
2018-08-06T15:52:10.988Z,3.47
2018-08-06T15:54:39.451Z,2.75
2018-08-06T15:57:08.247Z,2.87
2018-08-06T15:59:36.583Z,2.33
2018-08-06T16:02:04.938Z,3.02
2018-08-06T16:04:33.368Z,2.98
2018-08-06T16:07:01.799Z,3.50
2018-08-06T16:09:30.111Z,2.80
2018-08-06T16:11:58.420Z,2.92
2018-08-06T16:14:26.746Z,2.72
2018-08-06T16:16:55.071Z,3.02
2018-08-06T16:19:23.573Z,2.50
2018-08-06T16:21:51.862Z,2.75
2018-08-06T16:24:20.219Z,2.90
2018-08-06T16:26:48.567Z,2.70
2018-08-06T16:29:16.993Z,2.65
2018-08-06T16:31:45.336Z,3.00
2018-08-06T16:34:13.666Z,2.85
2018-08-06T16:36:42.079Z,3.08
2018-08-06T16:39:13.164Z,2.90
2018-08-06T16:41:41.938Z,3.00
2018-08-06T16:44:10.847Z,3.10
2018-08-06T16:46:39.194Z,3.10
2018-08-06T16:49:08.615Z,3.10
2018-08-06T16:51:36.909Z,4.20
2018-08-06T16:54:05.230Z,3.60
2018-08-06T16:56:33.582Z,3.30
2018-08-06T16:59:01.899Z,3.45
2018-08-06T17:01:30.262Z,3.95
2018-08-06T17:03:58.667Z,3.98
2018-08-06T17:06:27.170Z,3.60
2018-08-06T17:08:55.468Z,3.55
2018-08-06T17:11:23.795Z,4.50
2018-08-06T17:13:52.172Z,3.95
2018-08-06T17:16:20.503Z,4.15
2018-08-06T17:18:48.544Z,4.15
2018-08-06T17:21:16.903Z,3.80
2018-08-06T17:23:45.331Z,4.28
2018-08-06T17:26:13.362Z,4.25
2018-08-06T17:28:41.715Z,3.87
2018-08-06T17:31:10.359Z,5.20
2018-08-06T17:33:38.735Z,3.90
2018-08-06T17:36:07.055Z,3.95
2018-08-06T17:38:35.393Z,3.77
2018-08-06T17:41:03.812Z,3.72
2018-08-06T17:43:32.176Z,4.12
2018-08-06T17:46:00.528Z,4.15
2018-08-06T17:48:28.908Z,4.40
2018-08-06T17:50:57.289Z,3.70
2018-08-06T17:53:25.718Z,3.98
2018-08-06T17:55:54.430Z,4.10
2018-08-06T17:58:22.780Z,4.25
2018-08-06T18:00:51.141Z,4.40
2018-08-06T18:03:19.632Z,4.67
2018-08-06T18:05:49.142Z,4.28
2018-08-06T18:08:17.671Z,5.00
2018-08-06T18:10:46.004Z,5.97
2018-08-06T18:13:14.795Z,5.67
2018-08-06T18:15:43.237Z,4.85
2018-08-06T18:18:11.661Z,4.55
2018-08-06T18:20:42.126Z,4.65
2018-08-06T18:23:10.682Z,4.35
2018-08-06T18:25:39.176Z,5.03
2018-08-06T18:28:07.550Z,5.40
2018-08-06T18:30:35.898Z,6.12
2018-08-06T18:33:04.259Z,5.65
2018-08-06T18:35:32.674Z,5.42
2018-08-06T18:38:01.003Z,5.37
2018-08-06T18:40:29.465Z,6.33
2018-08-06T18:42:57.841Z,6.87
2018-08-06T18:45:26.209Z,5.40
2018-08-06T18:47:54.637Z,5.55
2018-08-06T18:50:23.045Z,7.22
2018-08-06T18:52:51.706Z,6.03
2018-08-06T18:55:20.099Z,6.58
2018-08-06T18:57:48.529Z,7.47
2018-08-06T19:00:19.932Z,10.40
2018-08-06T19:02:48.548Z,8.73
2018-08-06T19:05:16.922Z,7.53
2018-08-06T19:07:45.301Z,9.58
2018-08-06T19:10:13.749Z,7.30
2018-08-06T19:12:47.619Z,8.08
2018-08-06T19:15:16.215Z,9.53
2018-08-06T19:17:51.001Z,14.63
2018-08-06T19:20:19.382Z,14.13
2018-08-06T19:22:47.762Z,13.55
2018-08-06T19:25:22.109Z,15.78
2018-08-06T19:27:50.503Z,12.50
2018-08-06T19:30:18.819Z,13.00
2018-08-06T19:32:47.151Z,11.28
2018-08-06T19:35:15.505Z,17.10
2018-08-06T19:37:44.150Z,16.17
2018-08-06T19:40:12.748Z,16.35
2018-08-06T19:42:47.046Z,14.73
2018-08-06T19:45:15.397Z,11.75
2018-08-06T19:47:44.367Z,11.05
2018-08-06T19:50:18.205Z,9.38
2018-08-06T19:52:46.573Z,9.05
2018-08-06T19:55:20.318Z,8.58
2018-08-06T19:57:48.662Z,9.98
2018-08-06T20:00:16.972Z,9.08
2018-08-06T20:02:45.331Z,8.30
2018-08-06T20:05:13.800Z,8.18
2018-08-06T20:07:42.257Z,8.05
2018-08-06T20:10:12.436Z,7.47
2018-08-06T20:12:41.017Z,7.62
2018-08-06T20:15:15.220Z,8.33
2018-08-06T20:17:43.558Z,8.15
2018-08-06T20:20:12.488Z,8.40
2018-08-06T20:22:41.328Z,8.83
2018-08-06T20:25:16.208Z,7.85
2018-08-06T20:27:46.373Z,8.00
2018-08-06T20:30:15.188Z,7.42
2018-08-06T20:32:43.822Z,7.83
2018-08-06T20:35:13.932Z,7.12
2018-08-06T20:37:42.310Z,7.40
2018-08-06T20:40:10.984Z,8.23
2018-08-06T20:42:40.422Z,7.90
2018-08-06T20:45:10.302Z,7.42
2018-08-06T20:47:39.372Z,7.80
2018-08-06T20:50:09.735Z,7.28
2018-08-06T20:52:38.662Z,7.25
2018-08-06T20:55:07.790Z,7.42
2018-08-06T20:57:36.295Z,7.50
2018-08-06T21:00:05.330Z,7.00
2018-08-06T21:02:33.947Z,7.30
2018-08-06T21:05:02.470Z,6.97
2018-08-06T21:07:31.120Z,6.78
2018-08-06T21:09:59.543Z,7.20
2018-08-06T21:12:28.226Z,7.15
2018-08-06T21:14:58.208Z,7.15
2018-08-06T21:17:26.823Z,7.17
2018-08-06T21:19:55.387Z,6.75
2018-08-06T21:22:24.193Z,6.58
2018-08-06T21:24:53.907Z,6.15
2018-08-06T21:27:22.153Z,6.25
2018-08-06T21:29:50.488Z,6.65
2018-08-06T21:32:18.931Z,7.22
2018-08-06T21:34:47.492Z,7.10
2018-08-06T21:37:16.089Z,6.97
2018-08-06T21:39:44.847Z,6.28
2018-08-06T21:42:13.996Z,6.70
2018-08-06T21:44:43.007Z,6.78
2018-08-06T21:47:11.405Z,6.40
2018-08-06T21:49:39.743Z,6.53
2018-08-06T21:52:09.473Z,6.03
2018-08-06T21:54:38.042Z,7.12
2018-08-06T21:57:06.095Z,7.00
2018-08-06T21:59:34.508Z,6.87
2018-08-06T22:02:03.050Z,7.08
2018-08-06T22:04:31.640Z,7.35
2018-08-06T22:07:00.084Z,6.75
2018-08-06T22:09:28.604Z,7.25
2018-08-06T22:11:57.048Z,6.97
2018-08-06T22:14:25.645Z,7.07
2018-08-06T22:16:53.983Z,6.87
2018-08-06T22:19:22.320Z,6.47
2018-08-06T22:21:50.419Z,6.50
2018-08-06T22:24:18.807Z,6.70
2018-08-06T22:26:47.254Z,6.70
2018-08-06T22:29:15.606Z,6.30
2018-08-06T22:31:43.953Z,6.80
2018-08-06T22:34:12.388Z,7.33
2018-08-06T22:36:40.846Z,7.57
2018-08-06T22:39:10.532Z,7.30
2018-08-06T22:41:38.903Z,7.55
2018-08-06T22:44:07.391Z,7.20
2018-08-06T22:46:35.767Z,7.63
2018-08-06T22:49:04.117Z,7.40
2018-08-06T22:51:32.573Z,7.43
2018-08-06T22:54:00.952Z,7.10
2018-08-06T22:56:29.329Z,7.00
2018-08-06T22:58:57.734Z,7.17
2018-08-06T23:01:26.132Z,7.30
2018-08-06T23:03:54.531Z,6.70
2018-08-06T23:06:22.879Z,6.87
2018-08-06T23:08:51.311Z,7.40
2018-08-06T23:11:19.689Z,7.07
2018-08-06T23:13:48.075Z,7.10
2018-08-06T23:16:16.451Z,6.50
2018-08-06T23:18:44.873Z,6.60
2018-08-06T23:21:13.374Z,6.73
2018-08-06T23:23:41.780Z,6.70
2018-08-06T23:26:10.141Z,7.07
2018-08-06T23:28:38.532Z,6.43
2018-08-06T23:31:07.004Z,6.43
2018-08-06T23:33:35.438Z,6.37
2018-08-06T23:36:03.829Z,6.50
2018-08-06T23:38:32.187Z,6.30
2018-08-06T23:41:00.469Z,6.33
2018-08-06T23:43:28.908Z,6.43
2018-08-06T23:45:57.518Z,6.20
2018-08-06T23:48:25.982Z,6.20
2018-08-06T23:50:54.317Z,6.20
2018-08-06T23:53:23.539Z,6.37
2018-08-06T23:55:51.904Z,6.10
2018-08-06T23:58:20.396Z,6.43
